Time;durP1;ratioP1;P1;durP2;ratioP2;P2;SDS_P1;SDS_P2;PMS_P1;PMS_P2;Temp;Humidity;BMP_temperature;BMP_pressure;BME280_temperature;BME280_humidity;BME280_pressure;Samples;Min_cycle;Max_cycle;Signal;HPM_P1;HPM_P2
2023/10/06 00:01:33;;;;;;;11.13;6.80;;;;;;;12.05;95.19;102396.63;4967395;28;20130;-73
2023/10/06 00:04:06;;;;;;;13.93;7.00;;;;;;;12.04;95.41;102399.25;4967273;28;20506;-73
2023/10/06 00:06:37;;;;;;;14.10;6.60;;;;;;;12.01;95.36;102392.25;4966819;28;20081;-74
2023/10/06 00:09:06;;;;;;;11.43;6.18;;;;;;;11.97;95.31;102385.19;4967596;28;20093;-73
2023/10/06 00:11:37;;;;;;;12.88;6.80;;;;;;;11.94;95.59;102383.47;4967038;28;20149;-73
2023/10/06 00:14:07;;;;;;;11.93;6.50;;;;;;;11.92;95.77;102394.97;4967433;28;20054;-73
2023/10/06 00:16:40;;;;;;;14.32;6.55;;;;;;;11.91;96.04;102398.50;4967007;28;20055;-71
2023/10/06 00:19:55;;;;;;;12.60;6.70;;;;;;;11.90;96.37;102392.34;4965561;28;20098;-73
2023/10/06 00:22:12;;;;;;;14.20;6.82;;;;;;;11.88;96.26;102387.94;4968051;28;20078;-72
2023/10/06 00:24:42;;;;;;;12.10;7.18;;;;;;;11.86;96.46;102387.97;4962583;28;20149;-72
2023/10/06 00:27:11;;;;;;;14.25;7.05;;;;;;;11.84;96.71;102384.47;4965609;28;20051;-73
2023/10/06 00:29:56;;;;;;;15.10;7.25;;;;;;;11.84;96.79;102384.47;4967022;28;20047;-72
2023/10/06 00:32:27;;;;;;;12.25;7.15;;;;;;;11.83;96.94;102384.50;4965885;28;20709;-72
2023/10/06 00:35:22;;;;;;;15.93;7.43;;;;;;;11.81;96.93;102387.13;4966732;28;20160;-73
2023/10/06 00:37:50;;;;;;;14.10;6.90;;;;;;;11.80;97.25;102380.13;4967356;28;20134;-73
2023/10/06 00:40:24;;;;;;;13.38;6.85;;;;;;;11.79;97.38;102373.09;4966172;28;20043;-73
2023/10/06 00:42:56;;;;;;;11.15;6.68;;;;;;;11.79;97.35;102375.72;4969939;28;20082;-73
2023/10/06 00:45:26;;;;;;;11.50;7.15;;;;;;;11.79;97.74;102375.72;4968916;28;20046;-73
2023/10/06 00:47:54;;;;;;;11.07;7.18;;;;;;;11.79;97.81;102379.22;4967447;28;20047;-73
2023/10/06 00:50:25;;;;;;;13.57;7.50;;;;;;;11.80;98.07;102369.56;4983767;28;20064;-72
2023/10/06 00:52:55;;;;;;;15.93;7.10;;;;;;;11.79;98.08;102375.72;4970411;28;20428;-73
2023/10/06 00:55:23;;;;;;;16.45;7.28;;;;;;;11.78;98.08;102373.97;4968853;28;20124;-73
2023/10/06 00:57:53;;;;;;;12.25;7.32;;;;;;;11.79;98.39;102373.09;4967947;28;20050;-73
2023/10/06 01:00:21;;;;;;;12.35;6.82;;;;;;;11.77;98.27;102364.28;4970644;28;20443;-72
2023/10/06 01:02:49;;;;;;;12.15;6.97;;;;;;;11.78;98.50;102376.63;4968940;28;20089;-73
2023/10/06 01:05:21;;;;;;;11.50;6.70;;;;;;;11.76;98.55;102362.53;4968815;28;20042;-73
2023/10/06 01:07:49;;;;;;;15.18;7.55;;;;;;;11.75;98.60;102369.56;4970477;28;20049;-72
2023/10/06 01:10:27;;;;;;;12.02;7.18;;;;;;;11.75;98.58;102368.72;4970655;28;20133;-71
2023/10/06 01:12:56;;;;;;;11.60;7.13;;;;;;;11.76;98.62;102367.81;4969473;28;20487;-71
2023/10/06 01:15:29;;;;;;;13.32;6.82;;;;;;;11.76;98.73;102357.25;4969355;28;20050;-71
2023/10/06 01:17:58;;;;;;;11.45;6.32;;;;;;;11.74;98.71;102348.47;4969180;28;20133;-71
2023/10/06 01:20:41;;;;;;;13.73;7.00;;;;;;;11.74;99.00;102348.47;4969021;28;20045;-71
2023/10/06 01:23:20;;;;;;;13.32;6.68;;;;;;;11.75;99.02;102350.22;4968958;28;20482;-70
2023/10/06 01:25:53;;;;;;;11.60;6.75;;;;;;;11.75;99.21;102347.56;4968285;28;20459;-70
2023/10/06 01:28:23;;;;;;;9.97;5.87;;;;;;;11.75;99.42;102351.09;4991968;28;20049;-70
2023/10/06 01:30:51;;;;;;;13.02;6.97;;;;;;;11.78;99.63;102347.56;4970950;28;20047;-70
2023/10/06 01:33:18;;;;;;;14.93;6.97;;;;;;;11.80;99.65;102348.41;4968838;28;20045;-70
2023/10/06 01:35:45;;;;;;;12.27;6.63;;;;;;;11.83;99.74;102339.56;4964319;28;20118;-70
2023/10/06 01:38:30;;;;;;;12.52;6.57;;;;;;;11.86;99.89;102332.47;4967678;28;20174;-73
2023/10/06 01:41:02;;;;;;;12.98;6.45;;;;;;;11.90;99.86;102335.97;4968048;28;20070;-74
2023/10/06 01:43:33;;;;;;;10.50;6.70;;;;;;;11.91;99.86;102328.00;4969658;28;20174;-74
2023/10/06 01:46:00;;;;;;;14.35;6.53;;;;;;;11.91;99.80;102341.22;4964560;28;20074;-74
2023/10/06 01:48:31;;;;;;;12.98;6.25;;;;;;;11.94;99.99;102340.31;4950491;28;20047;-74
2023/10/06 01:50:58;;;;;;;11.48;6.22;;;;;;;11.97;100.00;102340.25;4967069;28;20038;-74
2023/10/06 01:53:32;;;;;;;14.30;6.15;;;;;;;12.00;99.88;102342.06;4966429;28;20047;-74
2023/10/06 01:56:06;;;;;;;15.25;6.82;;;;;;;11.99;99.74;102330.59;4967198;28;20046;-74
2023/10/06 01:58:36;;;;;;;14.57;6.72;;;;;;;12.00;99.72;102324.41;4966341;28;20109;-73
2023/10/06 02:01:05;;;;;;;10.75;6.25;;;;;;;12.00;99.65;102319.13;4967188;28;20562;-74
2023/10/06 02:03:38;;;;;;;11.35;6.63;;;;;;;11.98;99.75;102318.25;4968243;28;20051;-75
2023/10/06 02:06:12;;;;;;;10.68;6.25;;;;;;;11.96;99.55;102327.94;4965989;28;20450;-75
2023/10/06 02:08:40;;;;;;;12.55;6.60;;;;;;;11.92;99.65;102323.59;4956807;28;20054;-75
2023/10/06 02:11:08;;;;;;;11.63;6.40;;;;;;;11.90;99.68;102322.75;4969226;28;20046;-74
2023/10/06 02:13:37;;;;;;;12.85;6.55;;;;;;;11.86;99.60;102324.56;4967227;28;20043;-73
2023/10/06 02:16:06;;;;;;;15.65;6.40;;;;;;;11.80;99.56;102322.84;4968771;28;20123;-74
2023/10/06 02:18:36;;;;;;;14.07;6.80;;;;;;;11.79;99.72;102331.69;4966116;28;20130;-74
2023/10/06 02:21:07;;;;;;;12.15;6.70;;;;;;;11.76;99.72;102326.41;4968469;28;20070;-70
2023/10/06 02:23:37;;;;;;;16.48;6.60;;;;;;;11.74;99.81;102336.16;4965999;28;20129;-70
2023/10/06 02:26:13;;;;;;;15.00;6.60;;;;;;;11.71;99.97;102333.53;4966983;28;20043;-70
2023/10/06 02:28:48;;;;;;;13.18;6.45;;;;;;;11.69;100.00;102329.16;4961769;28;20093;-70
2023/10/06 02:31:21;;;;;;;16.60;6.82;;;;;;;11.67;100.00;102329.16;4953098;28;20062;-71
2023/10/06 02:33:49;;;;;;;9.57;6.90;;;;;;;11.67;100.00;102323.03;4967004;28;20515;-70
2023/10/06 02:36:21;;;;;;;14.38;7.82;;;;;;;11.64;100.00;102324.78;4968588;28;20047;-71
2023/10/06 02:38:51;;;;;;;13.52;6.50;;;;;;;11.64;100.00;102318.66;4967137;28;20085;-71
2023/10/06 02:41:25;;;;;;;13.82;7.32;;;;;;;11.63;100.00;102330.09;4982642;28;20467;-73
2023/10/06 02:43:54;;;;;;;15.95;6.38;;;;;;;11.62;100.00;102333.63;4970031;28;20039;-74
2023/10/06 02:46:22;;;;;;;14.65;6.60;;;;;;;11.60;100.00;102325.72;4967668;28;20129;-72
2023/10/06 02:48:51;;;;;;;12.68;7.20;;;;;;;11.58;100.00;102319.59;4967284;28;20126;-73
2023/10/06 02:51:29;;;;;;;13.15;7.25;;;;;;;11.57;100.00;102316.94;4967091;28;20685;-72
2023/10/06 02:54:21;;;;;;;10.68;6.82;;;;;;;11.55;100.00;102316.13;4979700;28;20141;-73
2023/10/06 02:56:50;;;;;;;13.25;6.53;;;;;;;11.52;100.00;102322.28;4966105;28;20042;-73
2023/10/06 02:59:20;;;;;;;14.60;7.10;;;;;;;11.51;100.00;102317.88;4965633;28;20046;-72
2023/10/06 03:02:00;;;;;;;12.85;6.90;;;;;;;11.50;100.00;102327.59;4961495;28;20070;-73
2023/10/06 03:04:28;;;;;;;15.20;6.68;;;;;;;11.48;100.00;102320.59;4967827;28;20546;-73
2023/10/06 03:06:58;;;;;;;13.82;7.07;;;;;;;11.47;100.00;102316.19;4975703;28;20102;-72
2023/10/06 03:09:43;;;;;;;16.92;6.95;;;;;;;11.46;100.00;102319.72;4974400;28;20054;-72
2023/10/06 03:12:15;;;;;;;11.93;7.10;;;;;;;11.44;100.00;102309.19;4966206;28;20523;-73
2023/10/06 03:14:44;;;;;;;15.43;7.15;;;;;;;11.43;100.00;102310.06;4966455;28;20050;-73
2023/10/06 03:17:13;;;;;;;15.43;7.15;;;;;;;11.39;100.00;102304.84;4967227;28;20503;-73
2023/10/06 03:19:41;;;;;;;12.38;6.43;;;;;;;11.38;100.00;102309.22;4966125;28;20416;-74
2023/10/06 03:22:12;;;;;;;14.65;6.47;;;;;;;11.37;100.00;102302.19;4967462;28;20117;-70
2023/10/06 03:24:57;;;;;;;11.93;6.57;;;;;;;11.34;100.00;102303.09;4967027;28;20054;-69
2023/10/06 03:27:26;;;;;;;14.55;6.38;;;;;;;11.34;100.00;102308.38;4966446;28;20146;-70
2023/10/06 03:29:55;;;;;;;13.18;6.78;;;;;;;11.33;100.00;102301.34;4967510;28;20045;-70
2023/10/06 03:32:43;;;;;;;13.32;7.28;;;;;;;11.32;100.00;102304.88;4954384;28;20047;-70
2023/10/06 03:38:08;;;;;;;16.38;7.43;;;;;;;11.25;100.00;102300.56;4960078;28;20579;-71
2023/10/06 03:40:43;;;;;;;14.55;7.18;;;;;;;11.25;100.00;102312.88;4980372;28;20530;-71
2023/10/06 03:43:14;;;;;;;10.07;6.63;;;;;;;11.23;100.00;102302.34;4964934;28;20085;-71
2023/10/06 03:45:47;;;;;;;14.68;6.40;;;;;;;11.22;100.00;102305.88;4968049;28;20581;-70
2023/10/06 03:48:15;;;;;;;13.45;6.50;;;;;;;11.18;100.00;102298.88;4979348;28;20511;-70
2023/10/06 03:50:44;;;;;;;18.48;7.07;;;;;;;11.17;100.00;102291.84;4964072;28;20130;-70
2023/10/06 03:53:14;;;;;;;12.55;6.68;;;;;;;11.16;100.00;102288.31;4965342;28;20043;-71
2023/10/06 03:55:45;;;;;;;15.18;6.85;;;;;;;11.15;100.00;102289.19;4952515;28;20047;-71
2023/10/06 03:58:16;;;;;;;12.45;6.72;;;;;;;11.15;100.00;102277.78;4964936;28;20175;-71
2023/10/06 04:00:47;;;;;;;13.82;6.97;;;;;;;11.12;100.00;102276.06;4965890;28;20045;-70
2023/10/06 04:03:17;;;;;;;12.98;6.65;;;;;;;11.11;100.00;102270.78;4966604;28;20051;-72
2023/10/06 04:05:50;;;;;;;11.75;7.07;;;;;;;11.11;100.00;102271.66;4965743;28;20419;-72
2023/10/06 04:08:23;;;;;;;15.20;7.07;;;;;;;11.08;100.00;102257.63;4966876;28;20046;-71
2023/10/06 04:10:53;;;;;;;20.77;7.32;;;;;;;11.07;100.00;102264.66;4967655;28;20054;-74
2023/10/06 04:13:20;;;;;;;14.73;7.25;;;;;;;11.02;100.00;102259.41;4967335;28;20066;-73
2023/10/06 04:15:52;;;;;;;27.05;8.20;;;;;;;11.04;100.00;102269.94;4967848;28;20042;-74
2023/10/06 04:18:22;;;;;;;13.55;6.93;;;;;;;11.03;100.00;102277.00;4968719;28;20050;-74
2023/10/06 04:20:53;;;;;;;20.58;7.18;;;;;;;11.03;100.00;102277.00;4969889;28;20038;-72
2023/10/06 04:23:23;;;;;;;19.98;6.97;;;;;;;11.03;100.00;102281.44;4969012;28;20532;-71
2023/10/06 04:25:54;;;;;;;14.38;6.93;;;;;;;11.02;100.00;102291.09;4970580;28;20066;-71
2023/10/06 04:28:26;;;;;;;11.90;6.20;;;;;;;11.03;100.00;102295.47;4965345;28;20047;-71
2023/10/06 04:30:54;;;;;;;15.23;6.47;;;;;;;11.03;100.00;102297.25;4968502;28;20046;-73
2023/10/06 04:33:25;;;;;;;13.60;6.57;;;;;;;11.05;100.00;102294.59;4959332;28;20054;-78
2023/10/06 04:35:55;;;;;;;10.32;6.15;;;;;;;11.07;100.00;102288.41;4968979;28;20054;-70
2023/10/06 04:38:23;;;;;;;15.02;6.03;;;;;;;11.07;100.00;102283.13;4967455;28;20101;-70
2023/10/06 04:40:51;;;;;;;14.93;6.25;;;;;;;11.10;100.00;102280.47;4967706;28;20059;-70
2023/10/06 04:43:19;;;;;;;14.38;6.25;;;;;;;11.13;100.00;102280.44;4967619;28;20043;-70
2023/10/06 04:45:50;;;;;;;16.58;6.00;;;;;;;11.18;100.00;102280.41;4960573;28;20598;-72
2023/10/06 04:48:21;;;;;;;10.02;5.90;;;;;;;11.22;100.00;102278.59;4964994;28;20043;-70
2023/10/06 04:50:51;;;;;;;13.30;5.53;;;;;;;11.26;100.00;102278.56;4959669;28;20647;-70
2023/10/06 04:53:19;;;;;;;12.50;5.72;;;;;;;11.35;100.00;102267.00;4968402;28;20050;-70
2023/10/06 04:55:46;;;;;;;10.80;5.47;;;;;;;11.40;100.00;102266.94;4968494;28;20125;-70
2023/10/06 04:58:14;;;;;;;12.15;5.43;;;;;;;11.42;100.00;102263.44;4964814;28;20050;-70
2023/10/06 05:00:42;;;;;;;14.05;5.65;;;;;;;11.45;100.00;102262.50;4966664;28;20117;-70
2023/10/06 05:03:11;;;;;;;11.32;5.28;;;;;;;11.48;100.00;102265.13;4962651;28;20043;-70
2023/10/06 05:05:40;;;;;;;11.45;5.55;;;;;;;11.50;100.00;102258.94;4963855;28;20133;-70
2023/10/06 05:08:14;;;;;;;12.38;6.00;;;;;;;11.51;100.00;102257.16;4967640;28;20105;-70
2023/10/06 05:10:41;;;;;;;13.80;5.50;;;;;;;11.51;100.00;102254.50;4966503;28;20046;-70
2023/10/06 05:13:10;;;;;;;13.13;5.18;;;;;;;11.54;100.00;102250.97;4965233;28;20110;-71
2023/10/06 05:15:40;;;;;;;11.52;5.82;;;;;;;11.56;100.00;102259.72;4965248;28;20051;-73
2023/10/06 05:18:15;;;;;;;15.05;6.38;;;;;;;11.51;99.81;102251.88;4964002;28;20047;-73
2023/10/06 05:20:43;;;;;;;12.15;5.60;;;;;;;11.43;99.56;102251.09;4965120;28;20595;-72
2023/10/06 05:23:11;;;;;;;10.68;5.63;;;;;;;11.34;99.47;102252.94;4957485;28;20066;-73
2023/10/06 05:25:39;;;;;;;16.23;6.03;;;;;;;11.28;99.68;102258.31;4959819;28;20743;-74
2023/10/06 05:28:10;;;;;;;13.55;5.55;;;;;;;11.25;99.78;102258.31;4959586;28;20153;-73
2023/10/06 05:30:39;;;;;;;12.57;6.03;;;;;;;11.22;99.95;102261.00;4962278;28;20114;-73
2023/10/06 05:33:06;;;;;;;12.85;6.15;;;;;;;11.22;100.00;102266.28;4962016;28;20121;-73
2023/10/06 05:35:38;;;;;;;11.05;5.63;;;;;;;11.23;100.00;102270.66;4966882;28;20038;-73
2023/10/06 05:38:15;;;;;;;13.18;5.45;;;;;;;11.24;100.00;102269.78;4961062;28;20613;-73
2023/10/06 05:40:44;;;;;;;11.52;5.70;;;;;;;11.24;100.00;102267.13;4949241;28;20363;-72
2023/10/06 05:43:12;;;;;;;12.60;5.78;;;;;;;11.26;100.00;102278.56;4964381;28;20050;-72
2023/10/06 05:45:40;;;;;;;14.65;5.80;;;;;;;11.30;100.00;102276.75;4961855;28;20046;-73
2023/10/06 05:48:11;;;;;;;13.93;5.45;;;;;;;11.31;100.00;102274.09;4964788;28;20042;-72
2023/10/06 05:50:40;;;;;;;14.75;5.82;;;;;;;11.36;100.00;102270.53;4957764;28;20129;-73
2023/10/06 05:53:12;;;;;;;14.50;5.63;;;;;;;11.39;100.00;102268.72;4959187;28;20109;-73
2023/10/06 05:55:42;;;;;;;12.93;5.43;;;;;;;11.43;100.00;102265.19;4966827;28;20062;-73
2023/10/06 05:58:19;;;;;;;14.20;5.55;;;;;;;11.46;99.93;102266.91;4966548;28;20035;-73
2023/10/06 06:00:55;;;;;;;10.30;5.25;;;;;;;11.47;99.51;102256.31;4965128;28;20034;-73
2023/10/06 06:03:23;;;;;;;10.65;5.82;;;;;;;11.50;99.54;102252.75;4959631;28;20051;-73
2023/10/06 06:05:53;;;;;;;14.48;5.40;;;;;;;11.54;99.29;102262.41;4966297;28;20043;-73
2023/10/06 06:08:21;;;;;;;15.95;5.43;;;;;;;11.57;99.10;102256.19;4966879;28;20082;-73
2023/10/06 06:10:48;;;;;;;13.75;5.63;;;;;;;11.60;98.96;102261.47;4966360;28;20042;-72
2023/10/06 06:13:18;;;;;;;10.68;5.00;;;;;;;11.62;98.88;102259.69;4967628;28;20046;-72
2023/10/06 06:15:49;;;;;;;13.07;5.43;;;;;;;11.65;98.82;102254.34;4961247;28;20507;-73
2023/10/06 06:18:16;;;;;;;13.05;5.30;;;;;;;11.70;98.78;102264.88;4950414;28;20039;-73
2023/10/06 06:20:45;;;;;;;12.15;4.93;;;;;;;11.75;98.48;102261.25;4952001;28;20483;-73
2023/10/06 06:23:15;;;;;;;11.48;4.85;;;;;;;11.83;98.03;102261.16;4968160;28;20047;-73
2023/10/06 06:25:47;;;;;;;9.10;4.60;;;;;;;11.83;98.01;102255.03;4967127;28;20550;-73
2023/10/06 06:28:14;;;;;;;11.57;4.70;;;;;;;11.91;97.90;102261.94;4954172;28;20043;-73
2023/10/06 06:30:41;;;;;;;9.07;4.70;;;;;;;12.01;97.62;102256.56;4967556;28;20043;-73
2023/10/06 06:33:12;;;;;;;13.10;4.70;;;;;;;12.07;97.57;102259.13;4968225;28;20043;-73
2023/10/06 06:35:42;;;;;;;13.10;4.68;;;;;;;12.14;97.33;102271.34;4967856;28;20069;-73
2023/10/06 06:38:12;;;;;;;12.85;4.78;;;;;;;12.27;97.31;102283.53;4968738;28;20054;-73
2023/10/06 06:40:41;;;;;;;8.77;4.38;;;;;;;12.35;96.93;102280.78;4967402;28;20061;-72
2023/10/06 06:43:09;;;;;;;16.33;5.28;;;;;;;12.46;96.44;102275.31;4968472;28;20034;-73
2023/10/06 06:45:41;;;;;;;11.45;4.82;;;;;;;12.55;96.57;102272.50;4968431;28;20047;-73
2023/10/06 06:48:19;;;;;;;11.50;4.40;;;;;;;12.60;95.53;102271.59;4968364;28;20039;-73
2023/10/06 06:50:48;;;;;;;12.77;4.63;;;;;;;12.67;95.33;102267.94;4968330;28;20101;-74
2023/10/06 06:53:19;;;;;;;11.82;4.40;;;;;;;12.69;94.95;102268.78;4968023;28;20047;-72
2023/10/06 06:55:46;;;;;;;10.60;4.38;;;;;;;12.73;95.04;102268.69;4968299;28;20074;-74
2023/10/06 06:58:16;;;;;;;10.68;4.20;;;;;;;12.78;94.37;102273.03;4968722;28;20043;-73
2023/10/06 07:00:47;;;;;;;13.57;4.45;;;;;;;12.82;94.27;102270.31;4968279;28;20053;-73
2023/10/06 07:03:15;;;;;;;10.20;4.60;;;;;;;12.86;93.88;102265.84;4968609;28;20158;-73
2023/10/06 07:05:43;;;;;;;12.65;4.10;;;;;;;12.90;93.54;102264.88;4967979;28;20518;-73
2023/10/06 07:08:11;;;;;;;9.70;4.43;;;;;;;12.95;93.40;102278.03;4967676;28;20050;-73
2023/10/06 07:10:46;;;;;;;12.48;4.80;;;;;;;12.97;93.04;102263.88;4968952;28;20117;-74
2023/10/06 07:13:14;;;;;;;11.63;4.75;;;;;;;13.00;92.88;102262.97;4967807;28;20098;-73
2023/10/06 07:15:42;;;;;;;12.65;4.30;;;;;;;13.03;92.75;102254.94;4967123;28;20043;-73
2023/10/06 07:18:12;;;;;;;10.43;4.28;;;;;;;13.07;92.23;102261.94;4973299;28;20042;-73
2023/10/06 07:20:39;;;;;;;13.30;4.70;;;;;;;13.10;92.75;102268.94;4987523;28;20050;-74
2023/10/06 07:23:06;;;;;;;8.27;4.15;;;;;;;13.12;91.86;102265.41;4987299;28;20042;-74
2023/10/06 07:25:33;;;;;;;10.85;5.45;;;;;;;13.13;91.76;102269.75;4988169;28;20209;-74
2023/10/06 07:28:00;;;;;;;13.48;4.50;;;;;;;13.14;91.79;102258.28;4987505;28;20101;-73
2023/10/06 07:30:34;;;;;;;14.38;4.97;;;;;;;13.16;91.52;102271.50;4975212;28;20526;-73
2023/10/06 07:33:08;;;;;;;15.95;4.97;;;;;;;13.17;91.22;102262.66;4966304;28;20047;-73
2023/10/06 07:35:47;;;;;;;11.50;5.10;;;;;;;13.20;91.27;102273.19;4967055;28;20059;-73
2023/10/06 07:38:14;;;;;;;11.15;4.40;;;;;;;13.21;91.11;102269.63;4965820;28;20134;-73
2023/10/06 07:40:44;;;;;;;10.32;4.13;;;;;;;13.30;91.39;102284.50;4967401;28;20055;-73
2023/10/06 07:43:12;;;;;;;13.15;5.00;;;;;;;13.32;91.49;102278.25;4965072;28;20051;-73
2023/10/06 07:45:41;;;;;;;10.80;4.80;;;;;;;13.39;91.06;102276.41;4966181;28;20050;-74
2023/10/06 07:48:09;;;;;;;12.15;4.47;;;;;;;13.49;90.80;102277.06;4965191;28;20282;-73
2023/10/06 07:50:37;;;;;;;9.30;4.50;;;;;;;13.60;90.43;102284.81;4966103;28;20065;-73
2023/10/06 07:53:06;;;;;;;9.93;4.50;;;;;;;13.69;90.25;102287.28;4970030;28;20559;-73
2023/10/06 07:55:33;;;;;;;10.82;4.40;;;;;;;13.79;89.66;102293.25;4971504;28;20051;-73
2023/10/06 07:58:02;;;;;;;13.75;4.75;;;;;;;13.89;88.79;102301.91;4971463;28;20542;-73
2023/10/06 08:00:38;;;;;;;8.82;4.32;;;;;;;13.98;88.13;102296.41;4968954;28;20057;-73
2023/10/06 08:03:05;;;;;;;8.65;4.13;;;;;;;14.05;87.74;102300.66;4971417;28;20578;-73
2023/10/06 08:05:33;;;;;;;11.35;4.43;;;;;;;14.17;87.96;102299.53;4971494;28;20482;-73
2023/10/06 08:08:00;;;;;;;15.50;4.43;;;;;;;14.28;87.61;102299.28;4960326;28;20559;-74
2023/10/06 08:10:30;;;;;;;10.18;4.13;;;;;;;14.39;87.08;102307.00;4952226;28;20049;-74
2023/10/06 08:13:01;;;;;;;14.88;4.00;;;;;;;14.48;86.83;102308.56;4952021;28;20071;-73
2023/10/06 08:15:32;;;;;;;11.13;4.10;;;;;;;14.58;86.78;102308.31;4963141;28;20089;-73
2023/10/06 08:18:00;;;;;;;10.75;4.25;;;;;;;14.71;85.42;102316.00;4971427;28;20062;-74
2023/10/06 08:20:27;;;;;;;17.88;4.55;;;;;;;14.84;84.81;102313.94;4970628;28;20634;-73
2023/10/06 08:22:56;;;;;;;9.48;3.67;;;;;;;14.97;84.74;102310.03;4970038;28;20407;-73
2023/10/06 08:25:24;;;;;;;13.48;4.00;;;;;;;15.11;85.04;102304.38;4970615;28;20476;-73
2023/10/06 08:27:52;;;;;;;11.77;3.42;;;;;;;15.24;84.20;102309.38;4969929;28;20109;-74
2023/10/06 08:30:20;;;;;;;9.85;4.05;;;;;;;15.35;83.67;102309.97;4966843;28;20566;-73
2023/10/06 08:32:53;;;;;;;17.58;4.50;;;;;;;15.47;83.21;102295.44;4971137;28;20051;-73
2023/10/06 08:35:22;;;;;;;8.70;3.60;;;;;;;15.59;81.76;102292.47;4978368;28;20610;-73
2023/10/06 08:37:53;;;;;;;12.57;3.70;;;;;;;15.71;82.37;102304.56;4968770;28;20064;-73
2023/10/06 08:40:22;;;;;;;10.15;4.00;;;;;;;15.87;81.39;102291.72;4970333;28;20121;-73
2023/10/06 08:42:53;;;;;;;10.65;4.05;;;;;;;16.03;81.51;102288.59;4968604;28;20079;-73
2023/10/06 08:45:27;;;;;;;14.00;3.80;;;;;;;16.16;80.57;102289.97;4969420;28;20411;-73
2023/10/06 08:47:59;;;;;;;17.02;3.75;;;;;;;16.25;80.15;102291.44;4968948;28;20508;-73
2023/10/06 08:50:33;;;;;;;10.18;3.28;;;;;;;16.37;79.06;102295.53;4969298;28;20046;-74
2023/10/06 08:53:06;;;;;;;13.90;4.22;;;;;;;16.52;78.73;102288.84;4969814;28;20046;-73
2023/10/06 08:55:38;;;;;;;13.07;3.50;;;;;;;16.68;77.63;102298.06;4969275;28;20046;-72
2023/10/06 08:58:07;;;;;;;14.45;3.58;;;;;;;16.81;78.46;102292.34;4970930;28;20070;-73
2023/10/06 09:00:36;;;;;;;10.07;3.40;;;;;;;16.91;78.56;102275.97;4971403;28;20137;-72
2023/10/06 09:03:07;;;;;;;12.77;3.55;;;;;;;17.07;78.66;102280.81;4970075;28;20035;-73
2023/10/06 09:05:41;;;;;;;10.95;3.83;;;;;;;17.30;76.84;102287.09;4975851;28;20061;-72
2023/10/06 09:08:17;;;;;;;13.20;3.63;;;;;;;17.43;77.04;102277.75;4969958;28;20101;-72
2023/10/06 09:10:52;;;;;;;11.30;3.78;;;;;;;17.52;75.42;102289.88;4970466;28;20414;-72
2023/10/06 09:13:21;;;;;;;12.48;3.55;;;;;;;17.45;75.41;102299.91;4976750;28;20077;-73
2023/10/06 09:15:57;;;;;;;9.10;3.40;;;;;;;17.33;75.79;102293.22;4989996;28;20549;-72
2023/10/06 09:18:30;;;;;;;17.42;4.20;;;;;;;17.26;75.39;102304.16;4989808;28;20063;-72
2023/10/06 09:21:21;;;;;;;10.20;3.78;;;;;;;17.23;76.01;102295.34;5004794;28;20092;-73
2023/10/06 09:23:49;;;;;;;18.58;4.15;;;;;;;17.28;76.60;102291.66;4980135;28;20035;-73
2023/10/06 09:26:29;;;;;;;13.07;3.50;;;;;;;17.40;75.87;102288.50;4969859;28;20058;-74
2023/10/06 09:29:01;;;;;;;12.20;4.05;;;;;;;17.52;76.21;102279.22;4970031;28;20145;-73
2023/10/06 09:31:51;;;;;;;12.05;3.40;;;;;;;17.72;74.77;102272.28;4970298;28;20042;-73
2023/10/06 09:34:25;;;;;;;14.30;3.55;;;;;;;17.74;75.22;102271.28;4969416;28;20046;-73
2023/10/06 09:36:53;;;;;;;13.32;3.47;;;;;;;17.80;75.37;102271.06;4987476;28;20042;-74
2023/10/06 09:39:32;;;;;;;14.70;3.22;;;;;;;17.93;74.32;102270.56;4987843;28;20113;-74
2023/10/06 09:42:01;;;;;;;11.85;3.53;;;;;;;18.04;73.89;102263.06;4989225;28;20498;-74
2023/10/06 09:44:30;;;;;;;12.85;3.03;;;;;;;18.20;73.49;102260.66;4989134;28;20540;-73
2023/10/06 09:47:00;;;;;;;13.02;3.30;;;;;;;18.32;72.43;102259.28;4974893;28;20051;-74
2023/10/06 09:49:31;;;;;;;9.82;3.13;;;;;;;18.30;71.83;102247.81;4969054;28;20396;-73
2023/10/06 09:52:03;;;;;;;22.98;3.60;;;;;;;18.36;72.82;102244.88;4969378;28;20053;-73
2023/10/06 09:54:32;;;;;;;11.80;2.90;;;;;;;18.49;71.80;102250.56;4968938;28;20117;-74
2023/10/06 09:57:00;;;;;;;8.55;3.10;;;;;;;18.58;72.39;102250.19;4969886;28;20077;-72
2023/10/06 09:59:31;;;;;;;11.80;3.05;;;;;;;18.68;72.18;102249.81;4969295;28;20134;-72
2023/10/06 10:02:01;;;;;;;11.13;3.30;;;;;;;18.74;72.58;102255.75;4970036;28;20421;-74
2023/10/06 10:04:34;;;;;;;7.25;2.88;;;;;;;18.73;72.10;102250.50;4975627;28;20074;-74
2023/10/06 10:07:02;;;;;;;10.50;2.83;;;;;;;18.72;71.95;102251.41;4973102;28;20518;-73
2023/10/06 10:09:34;;;;;;;11.98;2.90;;;;;;;18.78;71.99;102249.34;4986879;28;20038;-72
2023/10/06 10:12:47;;;;;;;13.02;2.95;;;;;;;18.88;71.61;102240.94;4987153;28;20093;-74
2023/10/06 10:16:29;;;;;;;6.80;2.58;;;;;;;18.95;71.22;102246.94;4987170;28;20068;-73
2023/10/06 10:19:03;;;;;;;11.57;3.20;;;;;;;19.03;70.78;102234.94;4965808;28;20479;-74
2023/10/06 10:21:34;;;;;;;14.25;2.58;;;;;;;19.07;70.39;102225.88;4937808;28;20055;-73
2023/10/06 10:24:05;;;;;;;19.52;2.80;;;;;;;19.08;70.00;102227.63;4957132;28;20047;-74
2023/10/06 10:26:54;;;;;;;12.05;2.78;;;;;;;19.07;69.54;102222.34;4967040;28;20075;-73
2023/10/06 10:29:24;;;;;;;8.55;2.40;;;;;;;19.11;69.81;102228.41;4953475;28;20050;-74
2023/10/06 10:32:06;;;;;;;16.15;3.00;;;;;;;19.23;69.83;102219.81;4963887;28;20081;-73
2023/10/06 10:34:54;;;;;;;6.22;2.92;;;;;;;19.31;69.91;102222.16;4965840;28;20092;-74
2023/10/06 10:37:24;;;;;;;17.92;2.90;;;;;;;19.43;69.64;102218.94;4976403;28;20063;-74
2023/10/06 10:39:52;;;;;;;9.95;2.40;;;;;;;19.61;69.42;102216.34;4965863;28;20551;-74
2023/10/06 10:42:38;;;;;;;10.68;2.28;;;;;;;19.74;67.36;102214.81;4964617;28;20058;-73
2023/10/06 10:45:36;;;;;;;8.15;2.30;;;;;;;19.72;68.05;102235.44;4968472;28;20046;-73
2023/10/06 10:48:14;;;;;;;7.57;2.13;;;;;;;19.85;67.62;102227.69;4948621;28;20051;-73
2023/10/06 10:51:01;;;;;;;6.70;2.38;;;;;;;19.96;66.43;102230.75;4957667;28;20077;-74
2023/10/06 10:53:49;;;;;;;8.57;2.10;;;;;;;20.11;67.02;102223.78;4966840;28;20042;-73
2023/10/06 10:56:19;;;;;;;17.85;2.72;;;;;;;20.39;67.10;102217.09;4964854;28;20050;-73
2023/10/06 10:58:49;;;;;;;10.75;2.53;;;;;;;20.65;66.78;102209.50;4965012;28;20043;-74
2023/10/06 11:01:38;;;;;;;11.00;2.33;;;;;;;20.89;65.95;102217.28;4957201;28;20117;-74
2023/10/06 11:07:01;;;;;;;20.40;4.03;;;;;;;20.99;61.79;102206.91;4966958;28;20474;-72
2023/10/06 11:09:40;;;;;;;10.35;2.00;;;;;;;21.00;61.39;102204.19;4966541;28;20066;-72
2023/10/06 11:12:16;;;;;;;11.10;2.58;;;;;;;21.19;61.98;102204.03;4964587;28;20062;-73
2023/10/06 11:14:53;;;;;;;5.78;2.30;;;;;;;21.31;62.09;102196.28;4966738;28;20042;-74
2023/10/06 11:17:23;;;;;;;8.20;2.95;;;;;;;21.44;62.75;102202.72;4967121;28;20105;-73
2023/10/06 11:20:13;;;;;;;9.82;2.50;;;;;;;21.45;61.35;102203.56;4966793;28;20047;-74
2023/10/06 11:23:00;;;;;;;6.57;2.10;;;;;;;21.37;59.37;102212.03;4966277;28;20733;-72
2023/10/06 11:25:32;;;;;;;11.75;2.42;;;;;;;21.30;59.82;102208.84;4966241;28;20053;-74
2023/10/06 11:28:08;;;;;;;11.30;2.38;;;;;;;21.23;60.07;102210.09;4967086;28;20074;-73
2023/10/06 11:30:40;;;;;;;10.07;2.38;;;;;;;21.18;60.84;102210.34;4967724;28;20082;-73
2023/10/06 11:33:10;;;;;;;17.35;3.03;;;;;;;21.10;61.05;102210.78;4968014;28;20105;-72
2023/10/06 11:35:40;;;;;;;14.73;3.05;;;;;;;21.05;62.17;102218.19;4978552;28;20043;-73
2023/10/06 11:38:13;;;;;;;9.85;2.70;;;;;;;20.98;62.01;102206.06;4973391;28;20125;-73
2023/10/06 11:40:40;;;;;;;9.88;2.67;;;;;;;20.93;62.46;102195.59;4964852;28;20047;-74
2023/10/06 11:43:12;;;;;;;6.97;2.60;;;;;;;20.98;63.22;102194.47;4968010;28;20046;-75
2023/10/06 11:45:42;;;;;;;13.82;2.90;;;;;;;21.08;62.22;102193.03;4966353;28;20478;-74